sensor_id;sensor_type;location;lat;lon;timestamp;pressure;altitude;pressure_sealevel;temperature;humidity
55675;BME280;41562;44.330;23.802;2023-04-07T00:01:19;99892.72;;;3.93;81.47
55675;BME280;41562;44.330;23.802;2023-04-07T00:03:46;99901.66;;;4.04;80.00
55675;BME280;41562;44.330;23.802;2023-04-07T00:06:14;99900.22;;;4.13;78.69
55675;BME280;41562;44.330;23.802;2023-04-07T00:08:41;99897.16;;;4.04;78.49
55675;BME280;41562;44.330;23.802;2023-04-07T00:11:09;99899.56;;;4.06;79.23
55675;BME280;41562;44.330;23.802;2023-04-07T00:13:36;99895.84;;;3.90;79.85
55675;BME280;41562;44.330;23.802;2023-04-07T00:16:04;99896.66;;;3.91;81.47
55675;BME280;41562;44.330;23.802;2023-04-07T00:18:31;99896.22;;;4.11;80.02
55675;BME280;41562;44.330;23.802;2023-04-07T00:20:58;99896.03;;;4.00;80.54
55675;BME280;41562;44.330;23.802;2023-04-07T00:23:26;99890.41;;;3.97;80.63
55675;BME280;41562;44.330;23.802;2023-04-07T00:25:53;99893.28;;;3.95;80.26
55675;BME280;41562;44.330;23.802;2023-04-07T00:28:21;99893.44;;;4.17;79.00
55675;BME280;41562;44.330;23.802;2023-04-07T00:30:48;99893.59;;;3.99;79.58
55675;BME280;41562;44.330;23.802;2023-04-07T00:33:15;99899.47;;;3.73;81.45
55675;BME280;41562;44.330;23.802;2023-04-07T00:35:43;99897.06;;;3.71;80.94
55675;BME280;41562;44.330;23.802;2023-04-07T00:38:10;99884.94;;;3.75;81.51
55675;BME280;41562;44.330;23.802;2023-04-07T00:40:38;99891.63;;;3.78;81.37
55675;BME280;41562;44.330;23.802;2023-04-07T00:43:05;99891.91;;;3.64;82.11
55675;BME280;41562;44.330;23.802;2023-04-07T00:45:32;99888.88;;;3.73;82.19
55675;BME280;41562;44.330;23.802;2023-04-07T00:48:00;99890.59;;;3.79;82.40
55675;BME280;41562;44.330;23.802;2023-04-07T00:50:28;99894.31;;;3.66;82.70
55675;BME280;41562;44.330;23.802;2023-04-07T00:52:55;99892.25;;;3.56;82.36
55675;BME280;41562;44.330;23.802;2023-04-07T00:55:23;99889.16;;;3.48;83.00
55675;BME280;41562;44.330;23.802;2023-04-07T00:57:50;99890.06;;;3.65;83.07
55675;BME280;41562;44.330;23.802;2023-04-07T01:00:18;99885.41;;;3.84;84.24
55675;BME280;41562;44.330;23.802;2023-04-07T01:03:09;99890.38;;;3.69;82.27
55675;BME280;41562;44.330;23.802;2023-04-07T01:05:55;99881.31;;;3.64;82.73
55675;BME280;41562;44.330;23.802;2023-04-07T01:08:41;99876.75;;;3.60;82.37
55675;BME280;41562;44.330;23.802;2023-04-07T01:11:40;99893.84;;;3.57;83.59
55675;BME280;41562;44.330;23.802;2023-04-07T01:14:09;99890.16;;;3.70;82.64
55675;BME280;41562;44.330;23.802;2023-04-07T01:22:02;99891.28;;;3.74;82.56
55675;BME280;41562;44.330;23.802;2023-04-07T01:30:09;99881.09;;;3.66;84.07
55675;BME280;41562;44.330;23.802;2023-04-07T01:32:40;99878.59;;;3.59;83.07
55675;BME280;41562;44.330;23.802;2023-04-07T01:35:11;99883.66;;;3.38;84.19
55675;BME280;41562;44.330;23.802;2023-04-07T01:37:39;99892.59;;;3.48;84.36
55675;BME280;41562;44.330;23.802;2023-04-07T01:40:08;99883.09;;;3.47;84.29
55675;BME280;41562;44.330;23.802;2023-04-07T01:42:36;99880.59;;;3.69;82.13
55675;BME280;41562;44.330;23.802;2023-04-07T01:45:06;99880.66;;;3.57;83.56
55675;BME280;41562;44.330;23.802;2023-04-07T01:47:35;99883.88;;;3.59;84.18
55675;BME280;41562;44.330;23.802;2023-04-07T01:50:05;99874.56;;;3.57;83.29
55675;BME280;41562;44.330;23.802;2023-04-07T01:52:34;99890.53;;;3.50;84.16
55675;BME280;41562;44.330;23.802;2023-04-07T01:55:03;99884.91;;;3.35;84.39
55675;BME280;41562;44.330;23.802;2023-04-07T01:57:31;99890.22;;;3.23;85.10
55675;BME280;41562;44.330;23.802;2023-04-07T01:59:58;99888.25;;;3.42;84.76
55675;BME280;41562;44.330;23.802;2023-04-07T02:02:26;99890.75;;;3.49;84.50
55675;BME280;41562;44.330;23.802;2023-04-07T02:04:59;99886.88;;;3.51;83.86
55675;BME280;41562;44.330;23.802;2023-04-07T02:07:58;99873.66;;;3.51;83.68
55675;BME280;41562;44.330;23.802;2023-04-07T02:10:27;99880.44;;;3.47;84.24
55675;BME280;41562;44.330;23.802;2023-04-07T02:12:56;99876.41;;;3.45;84.81
55675;BME280;41562;44.330;23.802;2023-04-07T02:15:25;99882.25;;;3.58;83.44
55675;BME280;41562;44.330;23.802;2023-04-07T02:17:59;99880.91;;;3.44;84.73
55675;BME280;41562;44.330;23.802;2023-04-07T02:20:29;99877.41;;;3.55;83.65
55675;BME280;41562;44.330;23.802;2023-04-07T02:22:57;99885.25;;;3.50;84.57
55675;BME280;41562;44.330;23.802;2023-04-07T02:25:27;99888.81;;;3.56;84.66
55675;BME280;41562;44.330;23.802;2023-04-07T02:27:56;99879.97;;;3.50;83.97
55675;BME280;41562;44.330;23.802;2023-04-07T02:30:24;99877.91;;;3.52;83.83
55675;BME280;41562;44.330;23.802;2023-04-07T02:32:52;99877.81;;;3.47;84.44
55675;BME280;41562;44.330;23.802;2023-04-07T02:35:20;99884.25;;;3.40;84.92
55675;BME280;41562;44.330;23.802;2023-04-07T02:37:47;99879.28;;;3.43;84.54
55675;BME280;41562;44.330;23.802;2023-04-07T02:40:15;99884.75;;;3.65;85.85
55675;BME280;41562;44.330;23.802;2023-04-07T02:42:42;99878.09;;;3.62;83.56
55675;BME280;41562;44.330;23.802;2023-04-07T02:45:10;99882.13;;;3.65;83.41
55675;BME280;41562;44.330;23.802;2023-04-07T02:47:38;99887.31;;;3.48;84.12
55675;BME280;41562;44.330;23.802;2023-04-07T02:50:06;99888.56;;;3.57;84.56
55675;BME280;41562;44.330;23.802;2023-04-07T02:52:34;99884.66;;;3.60;84.68
55675;BME280;41562;44.330;23.802;2023-04-07T02:55:01;99887.91;;;3.50;84.55
55675;BME280;41562;44.330;23.802;2023-04-07T02:57:29;99902.13;;;3.49;84.42
55675;BME280;41562;44.330;23.802;2023-04-07T02:59:56;99893.44;;;3.37;85.20
55675;BME280;41562;44.330;23.802;2023-04-07T03:02:24;99891.03;;;3.47;84.89
55675;BME280;41562;44.330;23.802;2023-04-07T03:04:51;99893.06;;;3.57;84.94
55675;BME280;41562;44.330;23.802;2023-04-07T03:07:19;99897.09;;;3.48;85.15
55675;BME280;41562;44.330;23.802;2023-04-07T03:09:46;99890.41;;;3.57;83.93
55675;BME280;41562;44.330;23.802;2023-04-07T03:12:14;99902.00;;;3.56;85.36
55675;BME280;41562;44.330;23.802;2023-04-07T03:14:41;99901.66;;;3.64;84.83
55675;BME280;41562;44.330;23.802;2023-04-07T03:17:09;99897.44;;;3.51;86.92
55675;BME280;41562;44.330;23.802;2023-04-07T03:19:36;99901.91;;;3.51;85.72
55675;BME280;41562;44.330;23.802;2023-04-07T03:22:03;99904.91;;;3.43;86.32
55675;BME280;41562;44.330;23.802;2023-04-07T03:24:31;99900.91;;;3.40;86.43
55675;BME280;41562;44.330;23.802;2023-04-07T03:26:58;99899.19;;;3.46;86.34
55675;BME280;41562;44.330;23.802;2023-04-07T03:29:25;99899.59;;;3.54;85.84
55675;BME280;41562;44.330;23.802;2023-04-07T03:31:53;99905.13;;;3.53;86.23
55675;BME280;41562;44.330;23.802;2023-04-07T03:34:20;99892.59;;;4.62;90.93
55675;BME280;41562;44.330;23.802;2023-04-07T03:36:48;99898.53;;;8.06;77.94
55675;BME280;41562;44.330;23.802;2023-04-07T03:39:15;99894.22;;;9.57;64.82
55675;BME280;41562;44.330;23.802;2023-04-07T03:41:43;99892.13;;;9.54;64.80
55675;BME280;41562;44.330;23.802;2023-04-07T03:44:10;99893.31;;;8.77;65.19
55675;BME280;41562;44.330;23.802;2023-04-07T03:46:39;99903.94;;;8.36;66.84
55675;BME280;41562;44.330;23.802;2023-04-07T03:49:09;99893.28;;;9.12;75.45
55675;BME280;41562;44.330;23.802;2023-04-07T03:51:37;99894.41;;;8.66;68.93
55675;BME280;41562;44.330;23.802;2023-04-07T03:54:05;99909.66;;;7.88;70.09
55675;BME280;41562;44.330;23.802;2023-04-07T03:56:33;99907.81;;;7.93;73.83
55675;BME280;41562;44.330;23.802;2023-04-07T03:59:01;99906.63;;;8.36;71.95
55675;BME280;41562;44.330;23.802;2023-04-07T04:01:29;99907.66;;;7.06;71.13
55675;BME280;41562;44.330;23.802;2023-04-07T04:03:57;99919.97;;;8.57;67.34
55675;BME280;41562;44.330;23.802;2023-04-07T04:06:26;99920.50;;;9.09;67.82
55675;BME280;41562;44.330;23.802;2023-04-07T04:08:53;99916.47;;;7.58;67.84
55675;BME280;41562;44.330;23.802;2023-04-07T04:11:21;99918.84;;;6.17;72.54
55675;BME280;41562;44.330;23.802;2023-04-07T04:13:48;99924.78;;;4.70;77.69
55675;BME280;41562;44.330;23.802;2023-04-07T04:16:15;99930.41;;;4.29;83.00
55675;BME280;41562;44.330;23.802;2023-04-07T04:18:43;99930.84;;;4.09;84.87
55675;BME280;41562;44.330;23.802;2023-04-07T04:21:10;99927.25;;;3.75;84.26
55675;BME280;41562;44.330;23.802;2023-04-07T04:23:37;99931.69;;;3.98;87.49
55675;BME280;41562;44.330;23.802;2023-04-07T04:26:04;99930.25;;;3.79;89.61
55675;BME280;41562;44.330;23.802;2023-04-07T04:28:32;99936.69;;;3.71;89.09
55675;BME280;41562;44.330;23.802;2023-04-07T04:31:00;99935.91;;;3.71;87.43
55675;BME280;41562;44.330;23.802;2023-04-07T04:33:27;99942.59;;;3.38;87.65
55675;BME280;41562;44.330;23.802;2023-04-07T04:35:54;99942.38;;;3.40;89.50
55675;BME280;41562;44.330;23.802;2023-04-07T04:38:22;99942.59;;;3.38;89.02
55675;BME280;41562;44.330;23.802;2023-04-07T04:40:49;99953.28;;;3.43;91.47
55675;BME280;41562;44.330;23.802;2023-04-07T04:43:17;99952.69;;;3.64;91.30
55675;BME280;41562;44.330;23.802;2023-04-07T04:45:44;99959.75;;;3.87;87.43
55675;BME280;41562;44.330;23.802;2023-04-07T04:48:11;99954.47;;;3.87;86.46
55675;BME280;41562;44.330;23.802;2023-04-07T04:50:41;99947.78;;;3.96;85.26
55675;BME280;41562;44.330;23.802;2023-04-07T04:53:08;99958.59;;;3.95;85.95
55675;BME280;41562;44.330;23.802;2023-04-07T04:55:36;99964.44;;;4.09;85.79
55675;BME280;41562;44.330;23.802;2023-04-07T04:58:03;99965.06;;;4.27;86.56
55675;BME280;41562;44.330;23.802;2023-04-07T05:00:31;99966.50;;;4.63;87.75
55675;BME280;41562;44.330;23.802;2023-04-07T05:03:00;99957.91;;;5.06;80.62
55675;BME280;41562;44.330;23.802;2023-04-07T05:05:28;99967.13;;;5.54;78.58
55675;BME280;41562;44.330;23.802;2023-04-07T05:07:55;99970.88;;;5.58;79.58
55675;BME280;41562;44.330;23.802;2023-04-07T05:10:23;99967.69;;;5.78;78.90
55675;BME280;41562;44.330;23.802;2023-04-07T05:12:50;99976.34;;;5.68;77.45
55675;BME280;41562;44.330;23.802;2023-04-07T05:15:19;99980.03;;;5.50;80.12
55675;BME280;41562;44.330;23.802;2023-04-07T05:17:47;99981.22;;;5.21;80.28
55675;BME280;41562;44.330;23.802;2023-04-07T05:20:15;99985.69;;;5.54;80.38
55675;BME280;41562;44.330;23.802;2023-04-07T05:22:43;99990.13;;;5.70;77.21
55675;BME280;41562;44.330;23.802;2023-04-07T05:25:10;99990.59;;;6.00;76.59
55675;BME280;41562;44.330;23.802;2023-04-07T05:27:38;99985.41;;;5.72;76.12
55675;BME280;41562;44.330;23.802;2023-04-07T05:30:05;99998.63;;;5.89;79.03
55675;BME280;41562;44.330;23.802;2023-04-07T05:32:33;100000.81;;;6.14;75.77
55675;BME280;41562;44.330;23.802;2023-04-07T05:35:01;99998.84;;;6.53;74.26
55675;BME280;41562;44.330;23.802;2023-04-07T05:37:28;99995.56;;;6.67;72.26
55675;BME280;41562;44.330;23.802;2023-04-07T05:39:55;100005.75;;;7.07;72.43
55675;BME280;41562;44.330;23.802;2023-04-07T05:42:23;100005.44;;;7.04;71.07
55675;BME280;41562;44.330;23.802;2023-04-07T05:44:50;100008.03;;;7.25;69.97
55675;BME280;41562;44.330;23.802;2023-04-07T05:47:17;100006.22;;;7.78;68.49
55675;BME280;41562;44.330;23.802;2023-04-07T05:49:45;100013.63;;;8.18;73.56
55675;BME280;41562;44.330;23.802;2023-04-07T05:52:13;100012.69;;;8.50;64.46
55675;BME280;41562;44.330;23.802;2023-04-07T05:54:41;100014.44;;;8.29;65.67
55675;BME280;41562;44.330;23.802;2023-04-07T05:57:08;100026.06;;;8.60;64.38
55675;BME280;41562;44.330;23.802;2023-04-07T05:59:36;100019.72;;;9.01;67.36
55675;BME280;41562;44.330;23.802;2023-04-07T06:02:03;100020.44;;;9.78;61.11
55675;BME280;41562;44.330;23.802;2023-04-07T06:04:31;100016.25;;;10.41;58.55
55675;BME280;41562;44.330;23.802;2023-04-07T06:06:58;100015.94;;;10.47;58.16
55675;BME280;41562;44.330;23.802;2023-04-07T06:09:26;100018.75;;;10.17;58.18
55675;BME280;41562;44.330;23.802;2023-04-07T06:11:54;100018.03;;;10.56;57.63
55675;BME280;41562;44.330;23.802;2023-04-07T06:14:22;100011.91;;;10.55;58.06
55675;BME280;41562;44.330;23.802;2023-04-07T06:16:50;100011.03;;;10.00;59.29
55675;BME280;41562;44.330;23.802;2023-04-07T06:19:17;100016.34;;;10.11;62.73
55675;BME280;41562;44.330;23.802;2023-04-07T06:21:45;100013.69;;;10.05;59.81
55675;BME280;41562;44.330;23.802;2023-04-07T06:24:13;100026.38;;;9.19;63.05
55675;BME280;41562;44.330;23.802;2023-04-07T06:26:40;100022.38;;;9.06;62.85
55675;BME280;41562;44.330;23.802;2023-04-07T06:29:07;100024.78;;;9.28;65.84
55675;BME280;41562;44.330;23.802;2023-04-07T06:31:35;100026.88;;;9.56;62.39
55675;BME280;41562;44.330;23.802;2023-04-07T06:34:02;100018.59;;;9.73;61.38
55675;BME280;41562;44.330;23.802;2023-04-07T06:36:30;100017.50;;;9.79;61.10
55675;BME280;41562;44.330;23.802;2023-04-07T06:38:57;100022.09;;;9.58;61.59
55675;BME280;41562;44.330;23.802;2023-04-07T06:41:25;100022.38;;;9.42;62.71
55675;BME280;41562;44.330;23.802;2023-04-07T06:43:52;100023.97;;;9.48;62.41
55675;BME280;41562;44.330;23.802;2023-04-07T06:46:20;100022.88;;;9.64;63.27
55675;BME280;41562;44.330;23.802;2023-04-07T06:48:48;100029.31;;;9.33;66.34
55675;BME280;41562;44.330;23.802;2023-04-07T06:51:15;100031.44;;;9.46;66.01
55675;BME280;41562;44.330;23.802;2023-04-07T06:53:42;100023.69;;;9.54;62.64
55675;BME280;41562;44.330;23.802;2023-04-07T06:56:10;100031.19;;;9.07;63.67
55675;BME280;41562;44.330;23.802;2023-04-07T06:58:38;100034.88;;;8.75;65.28
55675;BME280;41562;44.330;23.802;2023-04-07T07:01:05;100038.38;;;9.26;64.66
55675;BME280;41562;44.330;23.802;2023-04-07T07:03:33;100036.25;;;9.28;64.46
55675;BME280;41562;44.330;23.802;2023-04-07T07:06:00;100040.53;;;9.09;64.74
55675;BME280;41562;44.330;23.802;2023-04-07T07:08:28;100037.31;;;9.27;64.64
55675;BME280;41562;44.330;23.802;2023-04-07T07:10:56;100040.50;;;9.55;65.25
55675;BME280;41562;44.330;23.802;2023-04-07T07:13:24;100039.63;;;9.95;62.67
55675;BME280;41562;44.330;23.802;2023-04-07T07:15:52;100045.84;;;9.65;62.47
55675;BME280;41562;44.330;23.802;2023-04-07T07:18:20;100046.34;;;9.62;61.97
55675;BME280;41562;44.330;23.802;2023-04-07T07:20:47;100052.22;;;9.74;62.57
55675;BME280;41562;44.330;23.802;2023-04-07T07:23:15;100051.44;;;9.58;60.98
55675;BME280;41562;44.330;23.802;2023-04-07T07:25:42;100052.78;;;9.51;62.80
55675;BME280;41562;44.330;23.802;2023-04-07T07:28:09;100052.25;;;9.39;62.16
55675;BME280;41562;44.330;23.802;2023-04-07T07:30:38;100061.06;;;9.54;65.97
55675;BME280;41562;44.330;23.802;2023-04-07T07:33:06;100054.38;;;9.62;61.05
55675;BME280;41562;44.330;23.802;2023-04-07T07:35:33;100063.47;;;9.46;61.93
55675;BME280;41562;44.330;23.802;2023-04-07T07:38:01;100069.34;;;9.53;62.10
55675;BME280;41562;44.330;23.802;2023-04-07T07:40:28;100061.56;;;9.82;63.74
55675;BME280;41562;44.330;23.802;2023-04-07T07:42:56;100074.66;;;9.33;62.97
55675;BME280;41562;44.330;23.802;2023-04-07T07:45:23;100073.81;;;8.81;63.56
55675;BME280;41562;44.330;23.802;2023-04-07T07:47:51;100074.59;;;8.72;64.53
55675;BME280;41562;44.330;23.802;2023-04-07T07:50:19;100078.13;;;9.18;62.97
55675;BME280;41562;44.330;23.802;2023-04-07T07:52:46;100085.06;;;9.04;63.31
55675;BME280;41562;44.330;23.802;2023-04-07T07:55:13;100084.22;;;8.98;62.95
55675;BME280;41562;44.330;23.802;2023-04-07T07:57:43;100085.00;;;8.88;61.76
55675;BME280;41562;44.330;23.802;2023-04-07T08:00:11;100085.31;;;9.68;60.61
55675;BME280;41562;44.330;23.802;2023-04-07T08:02:38;100088.47;;;10.05;58.57
55675;BME280;41562;44.330;23.802;2023-04-07T08:05:06;100084.75;;;10.17;58.03
55675;BME280;41562;44.330;23.802;2023-04-07T08:07:34;100100.75;;;10.06;57.77
55675;BME280;41562;44.330;23.802;2023-04-07T08:10:02;100085.28;;;10.03;60.12
55675;BME280;41562;44.330;23.802;2023-04-07T08:12:30;100089.56;;;9.94;57.36
55675;BME280;41562;44.330;23.802;2023-04-07T08:14:57;100106.16;;;9.56;59.93
55675;BME280;41562;44.330;23.802;2023-04-07T08:17:24;100101.06;;;9.14;59.90
55675;BME280;41562;44.330;23.802;2023-04-07T08:19:52;100099.72;;;8.96;67.44
55675;BME280;41562;44.330;23.802;2023-04-07T08:22:19;100112.44;;;8.74;65.81
55675;BME280;41562;44.330;23.802;2023-04-07T08:24:50;100112.34;;;8.54;66.63
55675;BME280;41562;44.330;23.802;2023-04-07T08:27:18;100113.31;;;9.00;64.98
55675;BME280;41562;44.330;23.802;2023-04-07T08:29:57;100107.94;;;10.31;69.77
55675;BME280;41562;44.330;23.802;2023-04-07T08:32:25;100096.13;;;11.02;59.14
55675;BME280;41562;44.330;23.802;2023-04-07T08:34:59;100096.31;;;11.15;57.38
55675;BME280;41562;44.330;23.802;2023-04-07T08:37:27;100107.53;;;11.17;54.77
55675;BME280;41562;44.330;23.802;2023-04-07T08:39:54;100097.25;;;11.97;52.94
55675;BME280;41562;44.330;23.802;2023-04-07T08:42:26;100099.13;;;11.34;55.15
55675;BME280;41562;44.330;23.802;2023-04-07T08:45:02;100103.75;;;10.79;55.76
55675;BME280;41562;44.330;23.802;2023-04-07T08:47:31;100099.66;;;10.33;55.12
55675;BME280;41562;44.330;23.802;2023-04-07T08:50:09;100100.63;;;10.57;57.19
55675;BME280;41562;44.330;23.802;2023-04-07T08:52:45;100100.94;;;10.45;54.23
55675;BME280;41562;44.330;23.802;2023-04-07T08:55:16;100114.41;;;9.95;57.17
55675;BME280;41562;44.330;23.802;2023-04-07T08:57:45;100113.38;;;9.60;58.50
55675;BME280;41562;44.330;23.802;2023-04-07T09:00:13;100116.03;;;9.50;67.27
55675;BME280;41562;44.330;23.802;2023-04-07T09:02:42;100117.13;;;9.54;60.53
55675;BME280;41562;44.330;23.802;2023-04-07T09:05:11;100120.03;;;9.22;61.43
55675;BME280;41562;44.330;23.802;2023-04-07T09:07:39;100120.56;;;9.35;61.48
55675;BME280;41562;44.330;23.802;2023-04-07T09:10:07;100129.22;;;8.79;64.70
55675;BME280;41562;44.330;23.802;2023-04-07T09:12:34;100136.50;;;8.94;65.10
55675;BME280;41562;44.330;23.802;2023-04-07T09:15:04;100125.81;;;8.94;65.11
55675;BME280;41562;44.330;23.802;2023-04-07T09:17:31;100133.59;;;9.06;64.82
55675;BME280;41562;44.330;23.802;2023-04-07T09:19:59;100128.56;;;9.19;69.53
55675;BME280;41562;44.330;23.802;2023-04-07T09:25:20;100140.22;;;8.93;64.57
55675;BME280;41562;44.330;23.802;2023-04-07T09:27:56;100134.31;;;8.86;64.89
55675;BME280;41562;44.330;23.802;2023-04-07T09:30:26;100142.06;;;8.87;64.78
55675;BME280;41562;44.330;23.802;2023-04-07T09:32:55;100134.22;;;8.56;65.24
55675;BME280;41562;44.330;23.802;2023-04-07T09:35:23;100134.75;;;8.58;63.33
55675;BME280;41562;44.330;23.802;2023-04-07T09:40:31;100132.91;;;8.58;64.23
55675;BME280;41562;44.330;23.802;2023-04-07T09:43:00;100141.06;;;8.41;61.75
55675;BME280;41562;44.330;23.802;2023-04-07T09:45:29;100141.88;;;8.42;62.38
55675;BME280;41562;44.330;23.802;2023-04-07T09:48:06;100142.06;;;8.30;63.43
55675;BME280;41562;44.330;23.802;2023-04-07T09:50:40;100140.13;;;8.63;64.21
55675;BME280;41562;44.330;23.802;2023-04-07T09:53:07;100144.22;;;8.96;63.16
55675;BME280;41562;44.330;23.802;2023-04-07T09:55:35;100146.72;;;9.33;65.92
55675;BME280;41562;44.330;23.802;2023-04-07T09:58:04;100152.00;;;9.17;61.80
55675;BME280;41562;44.330;23.802;2023-04-07T10:00:32;100157.41;;;9.48;72.47
55675;BME280;41562;44.330;23.802;2023-04-07T10:03:02;100151.78;;;9.39;62.21
55675;BME280;41562;44.330;23.802;2023-04-07T10:05:30;100151.00;;;9.49;61.85
55675;BME280;41562;44.330;23.802;2023-04-07T10:08:00;100156.28;;;9.13;63.72
55675;BME280;41562;44.330;23.802;2023-04-07T10:10:28;100156.88;;;9.41;78.13
55675;BME280;41562;44.330;23.802;2023-04-07T10:12:58;100155.53;;;9.33;63.60
55675;BME280;41562;44.330;23.802;2023-04-07T10:15:26;100160.84;;;9.33;64.62
55675;BME280;41562;44.330;23.802;2023-04-07T10:17:53;100162.44;;;9.24;62.50
55675;BME280;41562;44.330;23.802;2023-04-07T10:20:21;100161.66;;;9.28;64.56
55675;BME280;41562;44.330;23.802;2023-04-07T10:22:51;100165.38;;;9.27;61.84
55675;BME280;41562;44.330;23.802;2023-04-07T10:25:21;100169.06;;;9.11;62.59
55675;BME280;41562;44.330;23.802;2023-04-07T10:27:55;100173.94;;;9.50;59.31
55675;BME280;41562;44.330;23.802;2023-04-07T10:30:29;100165.94;;;9.55;58.55
55675;BME280;41562;44.330;23.802;2023-04-07T10:32:57;100161.69;;;9.64;60.37
55675;BME280;41562;44.330;23.802;2023-04-07T10:35:25;100163.81;;;9.82;60.95
55675;BME280;41562;44.330;23.802;2023-04-07T10:38:10;100175.56;;;9.76;61.18
55675;BME280;41562;44.330;23.802;2023-04-07T10:40:41;100170.22;;;9.81;60.10
55675;BME280;41562;44.330;23.802;2023-04-07T10:43:09;100170.53;;;9.80;60.18
55675;BME280;41562;44.330;23.802;2023-04-07T10:48:17;100178.78;;;9.68;62.40
55675;BME280;41562;44.330;23.802;2023-04-07T10:53:33;100177.44;;;9.50;61.71
55675;BME280;41562;44.330;23.802;2023-04-07T10:56:00;100186.22;;;9.56;61.16
55675;BME280;41562;44.330;23.802;2023-04-07T10:58:29;100181.84;;;9.04;64.40
55675;BME280;41562;44.330;23.802;2023-04-07T11:03:35;100192.69;;;8.77;65.96
55675;BME280;41562;44.330;23.802;2023-04-07T11:08:35;100184.47;;;8.84;66.84
55675;BME280;41562;44.330;23.802;2023-04-07T11:11:03;100192.50;;;8.99;70.19
55675;BME280;41562;44.330;23.802;2023-04-07T11:16:09;100201.25;;;8.84;66.42
55675;BME280;41562;44.330;23.802;2023-04-07T11:18:38;100194.59;;;8.87;67.54
55675;BME280;41562;44.330;23.802;2023-04-07T11:21:06;100207.97;;;8.97;68.33
55675;BME280;41562;44.330;23.802;2023-04-07T11:23:39;100201.56;;;8.98;68.45
55675;BME280;41562;44.330;23.802;2023-04-07T11:26:08;100203.38;;;8.82;67.41
55675;BME280;41562;44.330;23.802;2023-04-07T11:28:46;100204.84;;;9.10;66.63
55675;BME280;41562;44.330;23.802;2023-04-07T11:31:40;100204.38;;;9.39;71.42
55675;BME280;41562;44.330;23.802;2023-04-07T11:34:13;100197.41;;;9.43;66.01
55675;BME280;41562;44.330;23.802;2023-04-07T11:36:41;100208.09;;;9.43;65.28
55675;BME280;41562;44.330;23.802;2023-04-07T11:39:19;100211.00;;;9.21;66.78
55675;BME280;41562;44.330;23.802;2023-04-07T11:41:48;100214.22;;;9.33;73.55
55675;BME280;41562;44.330;23.802;2023-04-07T11:44:15;100206.72;;;9.30;67.38
55675;BME280;41562;44.330;23.802;2023-04-07T11:46:59;100210.38;;;8.99;68.80
55675;BME280;41562;44.330;23.802;2023-04-07T11:49:28;100222.84;;;8.88;69.87
55675;BME280;41562;44.330;23.802;2023-04-07T11:52:03;100226.13;;;9.00;77.40
55675;BME280;41562;44.330;23.802;2023-04-07T11:54:44;100217.78;;;8.92;68.95
55675;BME280;41562;44.330;23.802;2023-04-07T11:57:13;100215.44;;;8.95;67.65
55675;BME280;41562;44.330;23.802;2023-04-07T11:59:41;100214.31;;;8.86;67.17
55675;BME280;41562;44.330;23.802;2023-04-07T12:02:09;100222.88;;;8.93;69.31
55675;BME280;41562;44.330;23.802;2023-04-07T12:04:36;100221.66;;;8.59;69.83
55675;BME280;41562;44.330;23.802;2023-04-07T12:07:09;100232.31;;;8.59;71.32
55675;BME280;41562;44.330;23.802;2023-04-07T12:09:37;100229.13;;;8.62;71.09
55675;BME280;41562;44.330;23.802;2023-04-07T12:12:06;100236.22;;;10.41;71.23
55675;BME280;41562;44.330;23.802;2023-04-07T12:14:34;100241.81;;;11.29;64.43
55675;BME280;41562;44.330;23.802;2023-04-07T12:17:02;100245.69;;;12.59;60.01
55675;BME280;41562;44.330;23.802;2023-04-07T12:19:30;100248.19;;;11.39;61.81
55675;BME280;41562;44.330;23.802;2023-04-07T12:21:59;100252.50;;;11.84;61.83
55675;BME280;41562;44.330;23.802;2023-04-07T12:24:26;100248.84;;;11.64;61.72
55675;BME280;41562;44.330;23.802;2023-04-07T12:26:54;100252.13;;;11.56;61.93
55675;BME280;41562;44.330;23.802;2023-04-07T12:29:21;100249.66;;;11.16;62.93
55675;BME280;41562;44.330;23.802;2023-04-07T12:31:49;100254.56;;;11.97;61.43
55675;BME280;41562;44.330;23.802;2023-04-07T12:34:17;100259.97;;;12.26;60.84
55675;BME280;41562;44.330;23.802;2023-04-07T12:36:45;100259.13;;;11.96;61.19
55675;BME280;41562;44.330;23.802;2023-04-07T12:39:13;100259.50;;;11.80;62.77
55675;BME280;41562;44.330;23.802;2023-04-07T12:41:41;100264.41;;;11.57;63.60
55675;BME280;41562;44.330;23.802;2023-04-07T12:44:09;100250.84;;;11.49;62.40
55675;BME280;41562;44.330;23.802;2023-04-07T12:46:36;100265.09;;;11.83;60.40
55675;BME280;41562;44.330;23.802;2023-04-07T12:49:04;100261.69;;;12.12;60.46
55675;BME280;41562;44.330;23.802;2023-04-07T12:51:33;100266.38;;;10.62;68.42
55675;BME280;41562;44.330;23.802;2023-04-07T12:54:00;100261.00;;;9.61;69.46
55675;BME280;41562;44.330;23.802;2023-04-07T12:56:28;100265.63;;;9.08;71.58
55675;BME280;41562;44.330;23.802;2023-04-07T12:58:55;100259.94;;;8.47;74.08
55675;BME280;41562;44.330;23.802;2023-04-07T13:01:23;100264.16;;;8.38;74.65
55675;BME280;41562;44.330;23.802;2023-04-07T13:03:50;100262.59;;;8.47;74.77
55675;BME280;41562;44.330;23.802;2023-04-07T13:06:19;100268.81;;;8.26;77.30
55675;BME280;41562;44.330;23.802;2023-04-07T13:08:47;100262.44;;;8.27;76.17
55675;BME280;41562;44.330;23.802;2023-04-07T13:11:14;100256.19;;;8.12;77.63
55675;BME280;41562;44.330;23.802;2023-04-07T13:13:41;100268.16;;;8.09;76.79
55675;BME280;41562;44.330;23.802;2023-04-07T13:16:09;100264.66;;;8.35;77.81
55675;BME280;41562;44.330;23.802;2023-04-07T13:18:36;100276.56;;;8.60;73.43
55675;BME280;41562;44.330;23.802;2023-04-07T13:21:04;100262.03;;;8.40;79.04
55675;BME280;41562;44.330;23.802;2023-04-07T13:23:51;100274.56;;;8.13;75.75
55675;BME280;41562;44.330;23.802;2023-04-07T13:26:19;100269.94;;;8.30;75.09
55675;BME280;41562;44.330;23.802;2023-04-07T13:28:46;100273.63;;;8.29;75.85
55675;BME280;41562;44.330;23.802;2023-04-07T13:31:13;100270.97;;;8.29;74.36